sensor_id;sensor_type;location;lat;lon;timestamp;temperature;humidity
46029;DHT22;31763;48.180;7.904;2023-05-07T03:26:20;13.40;99.90
46029;DHT22;31763;48.180;7.904;2023-05-07T03:28:46;13.30;99.90
46029;DHT22;31763;48.180;7.904;2023-05-07T03:31:13;13.40;99.90
46029;DHT22;31763;48.180;7.904;2023-05-07T03:33:53;13.00;99.90
46029;DHT22;31763;48.180;7.904;2023-05-07T03:36:21;13.20;99.90
46029;DHT22;31763;48.180;7.904;2023-05-07T03:38:48;13.30;99.90
46029;DHT22;31763;48.180;7.904;2023-05-07T03:41:16;13.30;99.90
46029;DHT22;31763;48.180;7.904;2023-05-07T03:43:42;13.30;99.90
46029;DHT22;31763;48.180;7.904;2023-05-07T03:46:09;13.40;99.90
46029;DHT22;31763;48.180;7.904;2023-05-07T03:48:36;13.40;99.90
46029;DHT22;31763;48.180;7.904;2023-05-07T03:51:03;13.30;99.90
46029;DHT22;31763;48.180;7.904;2023-05-07T03:53:30;13.20;99.90
46029;DHT22;31763;48.180;7.904;2023-05-07T03:55:57;13.10;99.90
46029;DHT22;31763;48.180;7.904;2023-05-07T03:58:23;13.00;99.90
46029;DHT22;31763;48.180;7.904;2023-05-07T04:00:50;13.00;99.90
46029;DHT22;31763;48.180;7.904;2023-05-07T04:03:17;12.20;99.90
46029;DHT22;31763;48.180;7.904;2023-05-07T04:05:44;12.00;99.90
46029;DHT22;31763;48.180;7.904;2023-05-07T04:08:11;12.90;99.90
46029;DHT22;31763;48.180;7.904;2023-05-07T04:10:38;13.00;99.90
46029;DHT22;31763;48.180;7.904;2023-05-07T04:13:08;13.10;99.90
46029;DHT22;31763;48.180;7.904;2023-05-07T04:15:35;13.10;99.90
46029;DHT22;31763;48.180;7.904;2023-05-07T04:18:02;13.10;99.90
46029;DHT22;31763;48.180;7.904;2023-05-07T04:20:29;13.20;99.90
46029;DHT22;31763;48.180;7.904;2023-05-07T04:22:56;13.20;99.90
46029;DHT22;31763;48.180;7.904;2023-05-07T04:25:23;13.20;99.90
46029;DHT22;31763;48.180;7.904;2023-05-07T04:27:52;13.00;99.90
46029;DHT22;31763;48.180;7.904;2023-05-07T04:30:22;12.80;99.90
46029;DHT22;31763;48.180;7.904;2023-05-07T04:32:49;12.80;99.90
46029;DHT22;31763;48.180;7.904;2023-05-07T04:35:16;12.90;99.90
46029;DHT22;31763;48.180;7.904;2023-05-07T04:37:44;12.90;99.90
46029;DHT22;31763;48.180;7.904;2023-05-07T04:40:11;12.90;99.90
46029;DHT22;31763;48.180;7.904;2023-05-07T04:42:38;12.90;99.90
46029;DHT22;31763;48.180;7.904;2023-05-07T04:45:05;12.80;99.90
46029;DHT22;31763;48.180;7.904;2023-05-07T04:47:32;12.90;99.90
46029;DHT22;31763;48.180;7.904;2023-05-07T04:49:59;12.90;99.90
46029;DHT22;31763;48.180;7.904;2023-05-07T04:52:26;13.00;99.90
46029;DHT22;31763;48.180;7.904;2023-05-07T04:54:53;13.00;99.90
46029;DHT22;31763;48.180;7.904;2023-05-07T04:57:20;13.10;99.90
46029;DHT22;31763;48.180;7.904;2023-05-07T04:59:46;13.20;99.90
46029;DHT22;31763;48.180;7.904;2023-05-07T05:02:14;13.30;99.90
46029;DHT22;31763;48.180;7.904;2023-05-07T05:04:45;13.40;99.90
46029;DHT22;31763;48.180;7.904;2023-05-07T05:07:11;13.50;99.90
46029;DHT22;31763;48.180;7.904;2023-05-07T05:09:38;13.60;99.90
46029;DHT22;31763;48.180;7.904;2023-05-07T05:12:05;13.60;99.90
46029;DHT22;31763;48.180;7.904;2023-05-07T05:14:33;13.40;99.90
46029;DHT22;31763;48.180;7.904;2023-05-07T05:17:00;13.60;99.90
46029;DHT22;31763;48.180;7.904;2023-05-07T05:19:27;13.50;99.90
46029;DHT22;31763;48.180;7.904;2023-05-07T05:21:54;13.70;99.90
46029;DHT22;31763;48.180;7.904;2023-05-07T05:24:20;13.70;99.90
46029;DHT22;31763;48.180;7.904;2023-05-07T05:26:47;14.00;99.90
46029;DHT22;31763;48.180;7.904;2023-05-07T05:29:14;13.80;99.90
46029;DHT22;31763;48.180;7.904;2023-05-07T05:31:41;13.40;99.90
46029;DHT22;31763;48.180;7.904;2023-05-07T05:34:08;13.10;99.90
46029;DHT22;31763;48.180;7.904;2023-05-07T05:36:35;13.30;99.90
46029;DHT22;31763;48.180;7.904;2023-05-07T05:39:02;13.50;99.90
46029;DHT22;31763;48.180;7.904;2023-05-07T05:41:28;13.70;99.90
46029;DHT22;31763;48.180;7.904;2023-05-07T05:43:56;13.80;99.90
46029;DHT22;31763;48.180;7.904;2023-05-07T05:46:22;13.90;99.90
46029;DHT22;31763;48.180;7.904;2023-05-07T05:48:49;14.00;99.90
46029;DHT22;31763;48.180;7.904;2023-05-07T05:51:16;13.80;99.90
46029;DHT22;31763;48.180;7.904;2023-05-07T05:53:43;13.80;99.90
46029;DHT22;31763;48.180;7.904;2023-05-07T05:56:10;13.90;99.90
46029;DHT22;31763;48.180;7.904;2023-05-07T05:58:37;13.80;99.90
46029;DHT22;31763;48.180;7.904;2023-05-07T06:01:03;13.60;99.90
46029;DHT22;31763;48.180;7.904;2023-05-07T06:03:31;13.40;99.90
46029;DHT22;31763;48.180;7.904;2023-05-07T06:06:01;13.10;99.90
46029;DHT22;31763;48.180;7.904;2023-05-07T06:08:30;13.10;99.90
46029;DHT22;31763;48.180;7.904;2023-05-07T06:10:58;13.20;99.90
46029;DHT22;31763;48.180;7.904;2023-05-07T06:13:26;13.20;99.90
46029;DHT22;31763;48.180;7.904;2023-05-07T06:15:53;13.20;99.90
46029;DHT22;31763;48.180;7.904;2023-05-07T06:18:20;13.30;99.90
46029;DHT22;31763;48.180;7.904;2023-05-07T06:20:46;13.30;99.90
46029;DHT22;31763;48.180;7.904;2023-05-07T06:23:14;13.30;99.90
46029;DHT22;31763;48.180;7.904;2023-05-07T06:25:48;13.40;99.90
46029;DHT22;31763;48.180;7.904;2023-05-07T06:28:16;13.30;99.90
46029;DHT22;31763;48.180;7.904;2023-05-07T06:30:43;13.40;99.90
46029;DHT22;31763;48.180;7.904;2023-05-07T06:33:10;13.50;99.90
46029;DHT22;31763;48.180;7.904;2023-05-07T06:35:37;13.60;99.90
46029;DHT22;31763;48.180;7.904;2023-05-07T06:38:04;13.80;99.90
46029;DHT22;31763;48.180;7.904;2023-05-07T06:40:31;14.00;99.90
46029;DHT22;31763;48.180;7.904;2023-05-07T06:42:58;14.10;99.90
46029;DHT22;31763;48.180;7.904;2023-05-07T06:45:25;14.10;99.90
46029;DHT22;31763;48.180;7.904;2023-05-07T06:47:51;14.00;99.90
46029;DHT22;31763;48.180;7.904;2023-05-07T06:50:19;14.00;99.90
46029;DHT22;31763;48.180;7.904;2023-05-07T06:52:49;14.00;99.90
46029;DHT22;31763;48.180;7.904;2023-05-07T06:55:33;14.20;99.90
46029;DHT22;31763;48.180;7.904;2023-05-07T06:58:14;14.10;99.90
46029;DHT22;31763;48.180;7.904;2023-05-07T07:00:56;14.50;99.90
46029;DHT22;31763;48.180;7.904;2023-05-07T07:03:24;14.70;99.90
46029;DHT22;31763;48.180;7.904;2023-05-07T07:06:01;14.80;99.90
46029;DHT22;31763;48.180;7.904;2023-05-07T07:08:33;14.80;99.90
46029;DHT22;31763;48.180;7.904;2023-05-07T07:11:11;14.80;99.90
46029;DHT22;31763;48.180;7.904;2023-05-07T07:14:00;14.70;99.90
46029;DHT22;31763;48.180;7.904;2023-05-07T07:16:27;14.80;99.90
46029;DHT22;31763;48.180;7.904;2023-05-07T07:18:53;14.90;99.90
46029;DHT22;31763;48.180;7.904;2023-05-07T07:21:20;14.80;99.90
46029;DHT22;31763;48.180;7.904;2023-05-07T07:23:47;14.90;99.90
46029;DHT22;31763;48.180;7.904;2023-05-07T07:26:14;14.90;99.90
46029;DHT22;31763;48.180;7.904;2023-05-07T07:28:45;15.00;99.90
46029;DHT22;31763;48.180;7.904;2023-05-07T07:31:12;14.90;99.90
46029;DHT22;31763;48.180;7.904;2023-05-07T07:33:39;14.90;99.90
46029;DHT22;31763;48.180;7.904;2023-05-07T07:36:06;15.00;99.90
46029;DHT22;31763;48.180;7.904;2023-05-07T07:38:34;15.30;99.90
46029;DHT22;31763;48.180;7.904;2023-05-07T07:41:01;15.40;99.90
46029;DHT22;31763;48.180;7.904;2023-05-07T07:43:28;15.50;99.90
46029;DHT22;31763;48.180;7.904;2023-05-07T07:45:55;15.70;99.90
46029;DHT22;31763;48.180;7.904;2023-05-07T07:48:22;15.80;99.90
46029;DHT22;31763;48.180;7.904;2023-05-07T07:50:50;15.70;99.90
46029;DHT22;31763;48.180;7.904;2023-05-07T07:53:18;16.10;99.90
46029;DHT22;31763;48.180;7.904;2023-05-07T07:55:45;16.50;99.90
46029;DHT22;31763;48.180;7.904;2023-05-07T07:58:12;16.50;99.90
46029;DHT22;31763;48.180;7.904;2023-05-07T08:00:39;16.60;99.90
46029;DHT22;31763;48.180;7.904;2023-05-07T08:03:08;16.40;99.90
46029;DHT22;31763;48.180;7.904;2023-05-07T08:05:36;16.20;99.90
46029;DHT22;31763;48.180;7.904;2023-05-07T08:08:03;16.00;99.90
46029;DHT22;31763;48.180;7.904;2023-05-07T08:10:30;16.10;99.90
46029;DHT22;31763;48.180;7.904;2023-05-07T08:13:01;16.20;99.90
46029;DHT22;31763;48.180;7.904;2023-05-07T08:15:30;16.50;99.90
46029;DHT22;31763;48.180;7.904;2023-05-07T08:17:57;16.70;99.90
46029;DHT22;31763;48.180;7.904;2023-05-07T08:20:26;16.80;99.90
46029;DHT22;31763;48.180;7.904;2023-05-07T08:22:53;16.50;99.90
46029;DHT22;31763;48.180;7.904;2023-05-07T08:25:20;16.50;99.90
46029;DHT22;31763;48.180;7.904;2023-05-07T08:27:46;16.60;99.90
46029;DHT22;31763;48.180;7.904;2023-05-07T08:30:14;17.00;99.90
46029;DHT22;31763;48.180;7.904;2023-05-07T08:32:41;17.60;99.90
46029;DHT22;31763;48.180;7.904;2023-05-07T08:35:08;17.60;99.90
46029;DHT22;31763;48.180;7.904;2023-05-07T08:37:35;17.60;99.90
46029;DHT22;31763;48.180;7.904;2023-05-07T08:40:02;17.30;99.90
46029;DHT22;31763;48.180;7.904;2023-05-07T08:42:31;17.70;99.90
46029;DHT22;31763;48.180;7.904;2023-05-07T08:44:59;18.00;99.90
46029;DHT22;31763;48.180;7.904;2023-05-07T08:47:30;18.70;99.90
46029;DHT22;31763;48.180;7.904;2023-05-07T08:50:02;18.60;99.90
46029;DHT22;31763;48.180;7.904;2023-05-07T08:52:29;18.40;99.90
46029;DHT22;31763;48.180;7.904;2023-05-07T08:54:56;18.30;99.90
46029;DHT22;31763;48.180;7.904;2023-05-07T08:57:23;18.80;99.90
46029;DHT22;31763;48.180;7.904;2023-05-07T08:59:50;19.10;99.90
46029;DHT22;31763;48.180;7.904;2023-05-07T09:02:17;18.60;99.90
46029;DHT22;31763;48.180;7.904;2023-05-07T11:03:07;16.90;99.90
46029;DHT22;31763;48.180;7.904;2023-05-07T11:05:35;16.90;99.90
46029;DHT22;31763;48.180;7.904;2023-05-07T11:08:04;17.20;99.90
46029;DHT22;31763;48.180;7.904;2023-05-07T11:10:54;17.00;99.90
46029;DHT22;31763;48.180;7.904;2023-05-07T11:13:42;16.80;99.90
46029;DHT22;31763;48.180;7.904;2023-05-07T11:16:17;16.80;99.90
46029;DHT22;31763;48.180;7.904;2023-05-07T11:18:51;17.00;99.90
46029;DHT22;31763;48.180;7.904;2023-05-07T11:21:39;16.80;99.90
46029;DHT22;31763;48.180;7.904;2023-05-07T11:24:08;16.90;99.90
46029;DHT22;31763;48.180;7.904;2023-05-07T11:26:47;16.80;99.90
46029;DHT22;31763;48.180;7.904;2023-05-07T11:29:20;16.70;99.90
46029;DHT22;31763;48.180;7.904;2023-05-07T11:31:53;16.30;99.90
46029;DHT22;31763;48.180;7.904;2023-05-07T11:34:25;16.00;99.90
46029;DHT22;31763;48.180;7.904;2023-05-07T11:36:52;16.10;99.90
46029;DHT22;31763;48.180;7.904;2023-05-07T11:39:24;16.10;99.90
46029;DHT22;31763;48.180;7.904;2023-05-07T11:42:00;16.20;99.90
46029;DHT22;31763;48.180;7.904;2023-05-07T11:44:43;16.10;99.90
46029;DHT22;31763;48.180;7.904;2023-05-07T11:47:17;16.30;99.90
46029;DHT22;31763;48.180;7.904;2023-05-07T11:49:50;16.30;99.90
46029;DHT22;31763;48.180;7.904;2023-05-07T11:52:21;16.40;99.90
46029;DHT22;31763;48.180;7.904;2023-05-07T11:54:54;16.30;99.90
46029;DHT22;31763;48.180;7.904;2023-05-07T11:57:23;16.00;99.90
46029;DHT22;31763;48.180;7.904;2023-05-07T11:59:57;16.20;99.90
46029;DHT22;31763;48.180;7.904;2023-05-07T12:02:25;16.40;99.90
46029;DHT22;31763;48.180;7.904;2023-05-07T12:04:53;16.30;99.90
46029;DHT22;31763;48.180;7.904;2023-05-07T12:07:21;16.30;99.90
46029;DHT22;31763;48.180;7.904;2023-05-07T12:09:50;16.60;99.90
46029;DHT22;31763;48.180;7.904;2023-05-07T12:12:17;16.70;99.90
46029;DHT22;31763;48.180;7.904;2023-05-07T12:14:45;16.80;99.90
46029;DHT22;31763;48.180;7.904;2023-05-07T12:17:14;16.90;99.90
46029;DHT22;31763;48.180;7.904;2023-05-07T12:19:43;16.80;99.90
46029;DHT22;31763;48.180;7.904;2023-05-07T12:22:10;16.50;99.90
46029;DHT22;31763;48.180;7.904;2023-05-07T12:24:47;16.80;99.90
46029;DHT22;31763;48.180;7.904;2023-05-07T12:27:16;16.90;99.90
46029;DHT22;31763;48.180;7.904;2023-05-07T12:29:47;17.20;99.90
46029;DHT22;31763;48.180;7.904;2023-05-07T12:32:15;17.10;99.90
46029;DHT22;31763;48.180;7.904;2023-05-07T12:34:46;17.10;99.90
46029;DHT22;31763;48.180;7.904;2023-05-07T12:37:16;17.20;99.90
46029;DHT22;31763;48.180;7.904;2023-05-07T12:40:02;16.90;99.90
46029;DHT22;31763;48.180;7.904;2023-05-07T12:42:37;16.70;99.90
46029;DHT22;31763;48.180;7.904;2023-05-07T12:45:11;17.00;99.90
46029;DHT22;31763;48.180;7.904;2023-05-07T12:47:44;17.10;99.90
46029;DHT22;31763;48.180;7.904;2023-05-07T12:50:13;17.40;99.90
46029;DHT22;31763;48.180;7.904;2023-05-07T12:52:40;17.30;99.90
46029;DHT22;31763;48.180;7.904;2023-05-07T12:55:08;17.40;99.90
46029;DHT22;31763;48.180;7.904;2023-05-07T12:57:41;17.70;99.90
46029;DHT22;31763;48.180;7.904;2023-05-07T13:00:09;17.90;99.90
46029;DHT22;31763;48.180;7.904;2023-05-07T13:02:40;18.50;99.90
46029;DHT22;31763;48.180;7.904;2023-05-07T13:05:08;18.40;99.90
46029;DHT22;31763;48.180;7.904;2023-05-07T13:07:36;18.40;99.90
46029;DHT22;31763;48.180;7.904;2023-05-07T13:10:04;17.80;99.90
46029;DHT22;31763;48.180;7.904;2023-05-07T13:12:32;17.50;99.90
46029;DHT22;31763;48.180;7.904;2023-05-07T13:14:59;17.70;99.90
46029;DHT22;31763;48.180;7.904;2023-05-07T13:17:26;17.70;99.90
46029;DHT22;31763;48.180;7.904;2023-05-07T13:19:53;18.10;99.90
46029;DHT22;31763;48.180;7.904;2023-05-07T13:22:19;17.70;99.90
46029;DHT22;31763;48.180;7.904;2023-05-07T13:24:46;17.70;99.90
46029;DHT22;31763;48.180;7.904;2023-05-07T13:27:13;17.80;99.90
46029;DHT22;31763;48.180;7.904;2023-05-07T13:29:40;17.80;99.90
46029;DHT22;31763;48.180;7.904;2023-05-07T13:32:07;17.80;99.90
46029;DHT22;31763;48.180;7.904;2023-05-07T13:34:34;17.80;99.90
46029;DHT22;31763;48.180;7.904;2023-05-07T13:37:01;17.40;99.90
46029;DHT22;31763;48.180;7.904;2023-05-07T13:39:27;17.30;99.90
46029;DHT22;31763;48.180;7.904;2023-05-07T13:41:54;17.30;99.90
46029;DHT22;31763;48.180;7.904;2023-05-07T13:44:21;17.00;99.90
46029;DHT22;31763;48.180;7.904;2023-05-07T13:46:48;16.90;99.90
46029;DHT22;31763;48.180;7.904;2023-05-07T13:49:15;16.90;99.90
46029;DHT22;31763;48.180;7.904;2023-05-07T13:51:42;16.90;99.90
46029;DHT22;31763;48.180;7.904;2023-05-07T13:54:08;17.00;99.90
46029;DHT22;31763;48.180;7.904;2023-05-07T13:56:35;16.90;99.90
46029;DHT22;31763;48.180;7.904;2023-05-07T13:59:02;16.90;99.90
46029;DHT22;31763;48.180;7.904;2023-05-07T14:01:29;16.90;99.90
46029;DHT22;31763;48.180;7.904;2023-05-07T14:03:56;16.90;99.90
46029;DHT22;31763;48.180;7.904;2023-05-07T14:06:26;17.00;99.90
46029;DHT22;31763;48.180;7.904;2023-05-07T14:08:53;17.10;99.90
46029;DHT22;31763;48.180;7.904;2023-05-07T14:11:20;16.90;99.90
46029;DHT22;31763;48.180;7.904;2023-05-07T14:13:47;17.10;99.90
46029;DHT22;31763;48.180;7.904;2023-05-07T14:16:15;17.20;99.90
46029;DHT22;31763;48.180;7.904;2023-05-07T14:18:41;16.90;99.90
46029;DHT22;31763;48.180;7.904;2023-05-07T14:21:08;17.10;99.90
46029;DHT22;31763;48.180;7.904;2023-05-07T14:23:36;17.30;99.90
46029;DHT22;31763;48.180;7.904;2023-05-07T14:26:03;17.30;99.90
46029;DHT22;31763;48.180;7.904;2023-05-07T14:28:30;17.60;99.90
46029;DHT22;31763;48.180;7.904;2023-05-07T14:30:57;17.80;99.90
46029;DHT22;31763;48.180;7.904;2023-05-07T14:33:24;17.90;99.90
46029;DHT22;31763;48.180;7.904;2023-05-07T14:35:51;18.00;99.90
46029;DHT22;31763;48.180;7.904;2023-05-07T14:38:18;18.20;99.90
46029;DHT22;31763;48.180;7.904;2023-05-07T14:40:47;18.20;99.90
46029;DHT22;31763;48.180;7.904;2023-05-07T14:43:14;18.20;99.90
46029;DHT22;31763;48.180;7.904;2023-05-07T14:45:41;18.20;99.90
46029;DHT22;31763;48.180;7.904;2023-05-07T14:48:08;18.30;99.90
46029;DHT22;31763;48.180;7.904;2023-05-07T14:50:35;18.30;99.90
46029;DHT22;31763;48.180;7.904;2023-05-07T14:53:02;18.30;99.90
46029;DHT22;31763;48.180;7.904;2023-05-07T14:55:30;18.30;99.90
46029;DHT22;31763;48.180;7.904;2023-05-07T14:57:59;18.10;99.90
46029;DHT22;31763;48.180;7.904;2023-05-07T15:00:26;18.30;99.90
46029;DHT22;31763;48.180;7.904;2023-05-07T15:02:57;18.30;99.90
46029;DHT22;31763;48.180;7.904;2023-05-07T15:05:37;18.00;99.90
46029;DHT22;31763;48.180;7.904;2023-05-07T15:08:04;18.00;99.90
46029;DHT22;31763;48.180;7.904;2023-05-07T15:10:35;18.20;99.90
46029;DHT22;31763;48.180;7.904;2023-05-07T15:13:11;18.30;99.90
46029;DHT22;31763;48.180;7.904;2023-05-07T15:15:42;18.20;99.90
46029;DHT22;31763;48.180;7.904;2023-05-07T15:18:10;18.20;99.90
46029;DHT22;31763;48.180;7.904;2023-05-07T15:20:37;17.90;99.90
46029;DHT22;31763;48.180;7.904;2023-05-07T15:23:05;18.00;99.90
46029;DHT22;31763;48.180;7.904;2023-05-07T15:25:32;18.00;99.90
46029;DHT22;31763;48.180;7.904;2023-05-07T15:28:00;18.10;99.90
46029;DHT22;31763;48.180;7.904;2023-05-07T15:30:27;18.20;99.90
46029;DHT22;31763;48.180;7.904;2023-05-07T15:32:54;18.20;99.90
46029;DHT22;31763;48.180;7.904;2023-05-07T15:35:21;18.30;99.90
46029;DHT22;31763;48.180;7.904;2023-05-07T15:37:49;18.40;99.90
46029;DHT22;31763;48.180;7.904;2023-05-07T15:40:16;18.30;99.90
46029;DHT22;31763;48.180;7.904;2023-05-07T15:42:44;18.00;99.90
46029;DHT22;31763;48.180;7.904;2023-05-07T15:45:12;18.00;99.90
46029;DHT22;31763;48.180;7.904;2023-05-07T15:47:40;18.20;99.90
46029;DHT22;31763;48.180;7.904;2023-05-07T15:50:07;18.30;99.90
46029;DHT22;31763;48.180;7.904;2023-05-07T15:52:34;18.40;99.90
46029;DHT22;31763;48.180;7.904;2023-05-07T15:55:01;18.40;99.90
46029;DHT22;31763;48.180;7.904;2023-05-07T15:57:29;18.40;99.90
46029;DHT22;31763;48.180;7.904;2023-05-07T15:59:55;18.30;99.90
46029;DHT22;31763;48.180;7.904;2023-05-07T16:02:23;18.30;99.90
46029;DHT22;31763;48.180;7.904;2023-05-07T16:04:50;18.30;99.90
46029;DHT22;31763;48.180;7.904;2023-05-07T16:07:17;18.30;99.90
46029;DHT22;31763;48.180;7.904;2023-05-07T16:09:45;18.30;99.90
46029;DHT22;31763;48.180;7.904;2023-05-07T16:12:12;18.40;99.90
46029;DHT22;31763;48.180;7.904;2023-05-07T16:14:39;18.30;99.90
46029;DHT22;31763;48.180;7.904;2023-05-07T16:17:06;18.30;99.90
46029;DHT22;31763;48.180;7.904;2023-05-07T16:19:33;18.20;99.90
46029;DHT22;31763;48.180;7.904;2023-05-07T16:22:00;18.30;99.90
46029;DHT22;31763;48.180;7.904;2023-05-07T16:24:27;18.30;99.90
46029;DHT22;31763;48.180;7.904;2023-05-07T16:26:54;18.20;99.90
46029;DHT22;31763;48.180;7.904;2023-05-07T16:29:21;18.20;99.90
46029;DHT22;31763;48.180;7.904;2023-05-07T16:31:48;18.30;99.90
46029;DHT22;31763;48.180;7.904;2023-05-07T16:34:16;18.30;99.90
46029;DHT22;31763;48.180;7.904;2023-05-07T16:36:42;18.30;99.90
46029;DHT22;31763;48.180;7.904;2023-05-07T16:39:09;18.30;99.90
46029;DHT22;31763;48.180;7.904;2023-05-07T16:41:37;18.30;99.90
46029;DHT22;31763;48.180;7.904;2023-05-07T16:44:04;18.30;99.90
46029;DHT22;31763;48.180;7.904;2023-05-07T16:46:30;18.20;99.90
46029;DHT22;31763;48.180;7.904;2023-05-07T16:48:57;17.80;99.90
46029;DHT22;31763;48.180;7.904;2023-05-07T16:51:24;17.80;99.90
46029;DHT22;31763;48.180;7.904;2023-05-07T16:53:51;17.90;99.90
46029;DHT22;31763;48.180;7.904;2023-05-07T16:56:18;18.00;99.90
46029;DHT22;31763;48.180;7.904;2023-05-07T16:58:45;17.70;99.90
46029;DHT22;31763;48.180;7.904;2023-05-07T17:01:12;18.00;99.90
46029;DHT22;31763;48.180;7.904;2023-05-07T17:03:40;18.00;99.90
46029;DHT22;31763;48.180;7.904;2023-05-07T17:06:07;18.10;99.90
46029;DHT22;31763;48.180;7.904;2023-05-07T17:08:42;18.00;99.90
46029;DHT22;31763;48.180;7.904;2023-05-07T17:11:10;18.00;99.90
46029;DHT22;31763;48.180;7.904;2023-05-07T17:13:37;17.90;99.90
46029;DHT22;31763;48.180;7.904;2023-05-07T17:16:05;17.80;99.90
46029;DHT22;31763;48.180;7.904;2023-05-07T17:18:32;17.70;99.90
46029;DHT22;31763;48.180;7.904;2023-05-07T17:20:59;17.60;99.90
46029;DHT22;31763;48.180;7.904;2023-05-07T17:23:27;17.60;99.90
46029;DHT22;31763;48.180;7.904;2023-05-07T17:25:53;17.70;99.90
46029;DHT22;31763;48.180;7.904;2023-05-07T17:28:20;17.60;99.90
46029;DHT22;31763;48.180;7.904;2023-05-07T17:30:47;17.60;99.90
46029;DHT22;31763;48.180;7.904;2023-05-07T17:33:15;17.60;99.90
46029;DHT22;31763;48.180;7.904;2023-05-07T17:35:47;17.70;99.90
46029;DHT22;31763;48.180;7.904;2023-05-07T17:38:14;17.50;99.90
46029;DHT22;31763;48.180;7.904;2023-05-07T17:40:41;17.30;99.90
46029;DHT22;31763;48.180;7.904;2023-05-07T17:43:08;17.30;99.90
46029;DHT22;31763;48.180;7.904;2023-05-07T17:45:35;17.20;99.90
46029;DHT22;31763;48.180;7.904;2023-05-07T17:48:02;17.20;99.90
46029;DHT22;31763;48.180;7.904;2023-05-07T17:50:29;17.20;99.90
46029;DHT22;31763;48.180;7.904;2023-05-07T17:52:56;17.10;99.90
46029;DHT22;31763;48.180;7.904;2023-05-07T17:55:23;17.20;99.90
46029;DHT22;31763;48.180;7.904;2023-05-07T17:57:50;17.10;99.90
46029;DHT22;31763;48.180;7.904;2023-05-07T18:00:16;17.20;99.90
46029;DHT22;31763;48.180;7.904;2023-05-07T18:02:43;17.20;99.90
46029;DHT22;31763;48.180;7.904;2023-05-07T18:05:10;17.30;99.90
46029;DHT22;31763;48.180;7.904;2023-05-07T18:07:37;17.30;99.90
46029;DHT22;31763;48.180;7.904;2023-05-07T18:10:04;17.40;99.90
46029;DHT22;31763;48.180;7.904;2023-05-07T18:12:32;17.60;99.90
46029;DHT22;31763;48.180;7.904;2023-05-07T18:14:58;17.40;99.90
46029;DHT22;31763;48.180;7.904;2023-05-07T18:17:25;17.40;99.90
46029;DHT22;31763;48.180;7.904;2023-05-07T18:19:53;17.30;99.90
46029;DHT22;31763;48.180;7.904;2023-05-07T18:22:21;17.10;99.90
46029;DHT22;31763;48.180;7.904;2023-05-07T18:24:48;16.90;99.90
46029;DHT22;31763;48.180;7.904;2023-05-07T18:27:16;16.70;99.90
46029;DHT22;31763;48.180;7.904;2023-05-07T18:29:43;16.70;99.90
46029;DHT22;31763;48.180;7.904;2023-05-07T18:32:10;16.80;99.90
46029;DHT22;31763;48.180;7.904;2023-05-07T18:34:37;16.70;99.90
46029;DHT22;31763;48.180;7.904;2023-05-07T18:37:04;16.70;99.90
46029;DHT22;31763;48.180;7.904;2023-05-07T18:39:31;16.70;99.90
46029;DHT22;31763;48.180;7.904;2023-05-07T18:41:58;16.80;99.90
46029;DHT22;31763;48.180;7.904;2023-05-07T18:44:25;16.80;99.90
46029;DHT22;31763;48.180;7.904;2023-05-07T18:46:52;17.00;99.90
46029;DHT22;31763;48.180;7.904;2023-05-07T18:49:19;17.20;99.90
46029;DHT22;31763;48.180;7.904;2023-05-07T18:51:47;17.20;99.90
46029;DHT22;31763;48.180;7.904;2023-05-07T18:54:15;17.10;99.90
46029;DHT22;31763;48.180;7.904;2023-05-07T18:56:41;17.20;99.90
46029;DHT22;31763;48.180;7.904;2023-05-07T18:59:09;17.20;99.90
46029;DHT22;31763;48.180;7.904;2023-05-07T19:01:35;17.10;99.90
46029;DHT22;31763;48.180;7.904;2023-05-07T19:04:02;17.10;99.90
46029;DHT22;31763;48.180;7.904;2023-05-07T19:06:29;17.00;99.90
46029;DHT22;31763;48.180;7.904;2023-05-07T19:08:59;17.10;99.90
46029;DHT22;31763;48.180;7.904;2023-05-07T19:11:26;16.90;99.90
46029;DHT22;31763;48.180;7.904;2023-05-07T19:13:53;16.90;99.90
46029;DHT22;31763;48.180;7.904;2023-05-07T19:16:19;16.90;99.90
46029;DHT22;31763;48.180;7.904;2023-05-07T19:18:46;16.90;99.90
46029;DHT22;31763;48.180;7.904;2023-05-07T19:21:13;17.00;99.90
46029;DHT22;31763;48.180;7.904;2023-05-07T19:23:40;17.00;99.90
46029;DHT22;31763;48.180;7.904;2023-05-07T19:26:08;16.70;99.90
46029;DHT22;31763;48.180;7.904;2023-05-07T19:28:37;16.60;99.90
46029;DHT22;31763;48.180;7.904;2023-05-07T19:31:05;16.40;99.90
46029;DHT22;31763;48.180;7.904;2023-05-07T19:33:32;16.40;99.90
46029;DHT22;31763;48.180;7.904;2023-05-07T19:35:59;16.30;99.90
46029;DHT22;31763;48.180;7.904;2023-05-07T19:38:26;16.20;99.90
46029;DHT22;31763;48.180;7.904;2023-05-07T19:40:53;16.10;99.90
46029;DHT22;31763;48.180;7.904;2023-05-07T19:43:20;16.10;99.90
46029;DHT22;31763;48.180;7.904;2023-05-07T19:45:47;15.90;99.90
46029;DHT22;31763;48.180;7.904;2023-05-07T19:48:15;15.90;99.90
46029;DHT22;31763;48.180;7.904;2023-05-07T19:50:42;15.80;99.90
46029;DHT22;31763;48.180;7.904;2023-05-07T19:53:09;15.80;99.90
46029;DHT22;31763;48.180;7.904;2023-05-07T19:55:36;15.30;99.90
46029;DHT22;31763;48.180;7.904;2023-05-07T19:58:03;15.50;99.90
46029;DHT22;31763;48.180;7.904;2023-05-07T20:00:30;15.40;99.90
46029;DHT22;31763;48.180;7.904;2023-05-07T20:03:02;15.50;99.90
46029;DHT22;31763;48.180;7.904;2023-05-07T20:05:30;15.10;99.90
46029;DHT22;31763;48.180;7.904;2023-05-07T20:07:59;14.90;99.90
46029;DHT22;31763;48.180;7.904;2023-05-07T20:10:29;14.90;99.90
46029;DHT22;31763;48.180;7.904;2023-05-07T20:13:02;14.80;99.90
46029;DHT22;31763;48.180;7.904;2023-05-07T20:15:30;14.80;99.90
46029;DHT22;31763;48.180;7.904;2023-05-07T20:18:09;14.80;99.90
46029;DHT22;31763;48.180;7.904;2023-05-07T20:20:44;14.70;99.90
46029;DHT22;31763;48.180;7.904;2023-05-07T20:23:11;14.60;99.90
46029;DHT22;31763;48.180;7.904;2023-05-07T20:25:41;14.70;99.90
46029;DHT22;31763;48.180;7.904;2023-05-07T20:28:09;14.50;99.90
46029;DHT22;31763;48.180;7.904;2023-05-07T20:30:39;14.50;99.90
46029;DHT22;31763;48.180;7.904;2023-05-07T20:33:09;14.40;99.90
46029;DHT22;31763;48.180;7.904;2023-05-07T20:35:42;14.50;99.90
46029;DHT22;31763;48.180;7.904;2023-05-07T20:38:09;14.50;99.90
46029;DHT22;31763;48.180;7.904;2023-05-07T20:40:40;14.40;99.90
46029;DHT22;31763;48.180;7.904;2023-05-07T20:43:07;14.40;99.90
46029;DHT22;31763;48.180;7.904;2023-05-07T20:45:38;14.40;99.90
46029;DHT22;31763;48.180;7.904;2023-05-07T20:48:05;14.40;99.90
46029;DHT22;31763;48.180;7.904;2023-05-07T20:50:33;14.40;99.90
46029;DHT22;31763;48.180;7.904;2023-05-07T20:53:00;14.30;99.90
46029;DHT22;31763;48.180;7.904;2023-05-07T20:55:27;14.30;99.90
46029;DHT22;31763;48.180;7.904;2023-05-07T20:57:55;14.40;99.90
46029;DHT22;31763;48.180;7.904;2023-05-07T21:00:25;14.40;99.90